Terminal Aerodrome Forecast
Issued by NWS

Home | Current Version | Previous Version | Text Only | Print | Product List | Glossary On
Versions: 1 2 3 4 5 6 7 8 9 10 11 12 13 14 15 16 17 18 19 20 21 22 23 24 25
000
FTUS41 KBGM 181000 AAB
TAFITH
TAF AMD
KITH 181032Z 1811/1906 31010G18KT P6SM FEW015 OVC025
     FM181300 31012G20KT P6SM -SN OVC015
     FM182200 31008G16KT 2SM -SN OVC010
     FM190200 30008KT P6SM -SN OVC015=

USA.gov is the U.S. government's official web portal to all federal, state and local government web resources and services.